Time;durP1;ratioP1;P1;durP2;ratioP2;P2;SDS_P1;SDS_P2;PMS_P1;PMS_P2;Temp;Humidity;BMP_temperature;BMP_pressure;BME280_temperature;BME280_humidity;BME280_pressure;Samples;Min_cycle;Max_cycle;Signal;HPM_P1;HPM_P2
2023/04/20 00:00:20;;;;;;;2.33;2.00;;;;;;;;;;4979656;28;20171;-66
2023/04/20 00:02:46;;;;;;;2.17;1.60;;;;;;;;;;4976993;28;20207;-66
2023/04/20 00:05:11;;;;;;;3.13;1.67;;;;;;;;;;4976762;28;20212;-67
2023/04/20 00:07:37;;;;;;;3.40;2.27;;;;;;;;;;4974586;28;20938;-67
2023/04/20 00:10:03;;;;;;;3.30;1.87;;;;;;;;;;4971144;28;20188;-67
2023/04/20 00:12:28;;;;;;;3.20;1.77;;;;;;;;;;4997713;28;20220;-67
2023/04/20 00:14:54;;;;;;;4.87;1.60;;;;;;;;;;4982512;28;20586;-67
2023/04/20 00:17:19;;;;;;;3.17;1.73;;;;;;;;;;4988866;28;20218;-67
2023/04/20 00:19:45;;;;;;;4.60;1.90;;;;;;;;;;4982017;28;20192;-67
2023/04/20 00:22:10;;;;;;;4.40;2.00;;;;;;;;;;4982269;28;20206;-67
2023/04/20 00:24:35;;;;;;;3.63;2.00;;;;;;;;;;4990183;28;20272;-67
2023/04/20 00:27:00;;;;;;;2.90;1.83;;;;;;;;;;4984644;28;20189;-67
2023/04/20 00:29:26;;;;;;;2.70;1.87;;;;;;;;;;4979615;28;20183;-68
2023/04/20 00:31:51;;;;;;;5.17;1.80;;;;;;;;;;4988232;28;20259;-67
2023/04/20 00:34:16;;;;;;;3.27;2.00;;;;;;;;;;4988358;28;20189;-67
2023/04/20 00:36:41;;;;;;;9.07;3.37;;;;;;;;;;4993574;28;20258;-67
2023/04/20 00:39:07;;;;;;;3.57;1.80;;;;;;;;;;4986995;28;20183;-67
2023/04/20 00:41:32;;;;;;;3.43;1.70;;;;;;;;;;4993426;28;20195;-67
2023/04/20 00:43:57;;;;;;;2.17;1.40;;;;;;;;;;4992585;28;20222;-67
2023/04/20 00:46:22;;;;;;;2.70;1.87;;;;;;;;;;4987023;28;20223;-67
2023/04/20 00:48:49;;;;;;;3.50;1.57;;;;;;;;;;4983187;28;20172;-67
2023/04/20 00:51:15;;;;;;;4.80;1.70;;;;;;;;;;4987343;28;20188;-67
2023/04/20 00:53:40;;;;;;;2.33;1.80;;;;;;;;;;4993489;28;20267;-68
2023/04/20 00:56:05;;;;;;;3.13;1.90;;;;;;;;;;4992175;28;20234;-68
2023/04/20 00:58:31;;;;;;;3.47;1.73;;;;;;;;;;4990329;28;20195;-68
2023/04/20 01:00:56;;;;;;;2.97;1.80;;;;;;;;;;4989796;28;20634;-68
2023/04/20 01:03:22;;;;;;;4.90;2.30;;;;;;;;;;4993299;28;20195;-68
2023/04/20 01:05:47;;;;;;;4.73;2.30;;;;;;;;;;4991663;28;20176;-68
2023/04/20 01:08:12;;;;;;;6.33;2.03;;;;;;;;;;4992758;28;20184;-68
2023/04/20 01:10:37;;;;;;;3.80;1.83;;;;;;;;;;4992361;28;20268;-68
2023/04/20 01:13:02;;;;;;;2.77;1.77;;;;;;;;;;4990665;28;20298;-68
2023/04/20 01:15:28;;;;;;;6.67;1.83;;;;;;;;;;4992882;28;20669;-68
2023/04/20 01:17:53;;;;;;;3.40;1.70;;;;;;;;;;4991552;28;20282;-68
2023/04/20 01:20:19;;;;;;;4.53;2.10;;;;;;;;;;4989976;28;20202;-68
2023/04/20 01:22:48;;;;;;;3.17;2.00;;;;;;;;;;4988644;28;20211;-68
2023/04/20 01:25:14;;;;;;;6.27;1.90;;;;;;;;;;4991639;28;20180;-68
2023/04/20 01:27:39;;;;;;;4.03;2.23;;;;;;;;;;4989093;28;20237;-68
2023/04/20 01:30:04;;;;;;;3.07;2.23;;;;;;;;;;4992732;28;20673;-68
2023/04/20 01:32:30;;;;;;;2.77;1.70;;;;;;;;;;4992289;28;20199;-68
2023/04/20 01:34:55;;;;;;;5.37;1.87;;;;;;;;;;4984142;28;20339;-68
2023/04/20 01:37:21;;;;;;;6.30;2.07;;;;;;;;;;4992206;28;20207;-68
2023/04/20 01:39:46;;;;;;;4.30;1.97;;;;;;;;;;4980648;28;20186;-68
2023/04/20 01:42:11;;;;;;;3.30;2.13;;;;;;;;;;4992138;28;20203;-68
2023/04/20 01:44:37;;;;;;;2.10;1.73;;;;;;;;;;4991158;28;20660;-68
2023/04/20 01:47:02;;;;;;;3.73;2.20;;;;;;;;;;4992221;28;20234;-68
2023/04/20 01:49:28;;;;;;;2.33;1.83;;;;;;;;;;4992010;28;20180;-68
2023/04/20 01:51:54;;;;;;;3.60;2.00;;;;;;;;;;4991167;28;20210;-68
2023/04/20 01:54:19;;;;;;;4.03;2.17;;;;;;;;;;4992074;28;20203;-68
2023/04/20 01:56:44;;;;;;;3.97;2.43;;;;;;;;;;4992265;28;20214;-68
2023/04/20 01:59:10;;;;;;;3.60;2.60;;;;;;;;;;4991513;28;20267;-68
2023/04/20 02:01:35;;;;;;;3.60;1.90;;;;;;;;;;4991604;28;20238;-68
2023/04/20 02:04:00;;;;;;;4.63;2.17;;;;;;;;;;4992346;28;20186;-68
2023/04/20 02:06:25;;;;;;;3.13;2.00;;;;;;;;;;4988886;28;20303;-68
2023/04/20 02:08:51;;;;;;;3.23;2.20;;;;;;;;;;4992060;28;20294;-68
2023/04/20 02:11:16;;;;;;;2.77;1.83;;;;;;;;;;4992158;28;20180;-67
2023/04/20 02:13:41;;;;;;;2.63;2.07;;;;;;;;;;4991817;28;20218;-67
2023/04/20 02:16:06;;;;;;;2.20;1.77;;;;;;;;;;4987657;28;20286;-67
2023/04/20 02:18:32;;;;;;;3.20;2.10;;;;;;;;;;4989205;28;20183;-67
2023/04/20 02:20:57;;;;;;;4.63;2.63;;;;;;;;;;4991624;28;20259;-67
2023/04/20 02:23:22;;;;;;;2.47;2.00;;;;;;;;;;4991636;28;20191;-67
2023/04/20 02:25:47;;;;;;;3.67;1.97;;;;;;;;;;4991530;28;20372;-67
2023/04/20 02:28:13;;;;;;;3.27;2.10;;;;;;;;;;4992098;28;20763;-67
2023/04/20 02:30:38;;;;;;;4.33;2.43;;;;;;;;;;4989255;28;20188;-67
2023/04/20 02:33:03;;;;;;;4.00;2.53;;;;;;;;;;4990261;28;20206;-67
2023/04/20 02:35:28;;;;;;;5.30;2.50;;;;;;;;;;4991394;28;20334;-68
2023/04/20 02:37:53;;;;;;;2.73;2.13;;;;;;;;;;4991663;28;20556;-67
2023/04/20 02:40:19;;;;;;;5.03;2.23;;;;;;;;;;4983869;28;20269;-67
2023/04/20 02:42:44;;;;;;;5.33;2.17;;;;;;;;;;4990295;28;20210;-67
2023/04/20 02:45:10;;;;;;;3.33;2.43;;;;;;;;;;4991927;28;20180;-67
2023/04/20 02:47:35;;;;;;;4.43;1.93;;;;;;;;;;4991059;28;20190;-67
2023/04/20 02:50:00;;;;;;;4.40;2.37;;;;;;;;;;4992221;28;20262;-67
2023/04/20 02:52:25;;;;;;;3.20;2.03;;;;;;;;;;4990911;28;20241;-67
2023/04/20 02:54:51;;;;;;;3.63;2.00;;;;;;;;;;4988659;28;20215;-67
2023/04/20 02:57:16;;;;;;;3.17;1.70;;;;;;;;;;4984236;28;20200;-68
2023/04/20 02:59:42;;;;;;;4.17;2.87;;;;;;;;;;4989700;28;20164;-67
2023/04/20 03:02:07;;;;;;;3.60;2.40;;;;;;;;;;4984220;28;20673;-67
2023/04/20 03:04:32;;;;;;;5.20;2.00;;;;;;;;;;4986045;28;20658;-67
2023/04/20 03:06:59;;;;;;;4.20;2.07;;;;;;;;;;4975867;28;20179;-67
2023/04/20 03:09:24;;;;;;;3.27;2.60;;;;;;;;;;4982537;28;20191;-67
2023/04/20 03:14:24;;;;;;;3.60;2.47;;;;;;;;;;4972992;28;20219;-82
2023/04/20 03:16:50;;;;;;;4.07;2.03;;;;;;;;;;4965792;28;20235;-81
2023/04/20 03:19:16;;;;;;;4.43;1.93;;;;;;;;;;4970431;28;20658;-81
2023/04/20 03:21:43;;;;;;;5.97;2.73;;;;;;;;;;4975389;28;20183;-82
2023/04/20 03:24:08;;;;;;;3.73;2.03;;;;;;;;;;4992526;28;20184;-82
2023/04/20 03:26:33;;;;;;;3.93;2.03;;;;;;;;;;4981168;28;20315;-81
2023/04/20 03:28:58;;;;;;;3.30;2.17;;;;;;;;;;4979736;28;20252;-81
2023/04/20 03:31:24;;;;;;;3.77;2.13;;;;;;;;;;4974911;28;20196;-81
2023/04/20 03:33:49;;;;;;;2.67;2.07;;;;;;;;;;4977239;28;20211;-81
2023/04/20 03:36:14;;;;;;;4.77;2.27;;;;;;;;;;4993726;28;20604;-80
2023/04/20 03:38:39;;;;;;;3.43;1.90;;;;;;;;;;4973539;28;20479;-82
2023/04/20 03:41:06;;;;;;;4.10;2.80;;;;;;;;;;4972670;28;20191;-81
2023/04/20 03:43:32;;;;;;;2.70;1.93;;;;;;;;;;4972015;28;20211;-81
2023/04/20 03:45:57;;;;;;;2.60;2.10;;;;;;;;;;4996386;28;20172;-80
2023/04/20 03:48:22;;;;;;;5.63;2.60;;;;;;;;;;4995121;28;20191;-81
2023/04/20 03:50:47;;;;;;;4.37;1.97;;;;;;;;;;4988958;28;20184;-81
2023/04/20 03:53:13;;;;;;;2.67;1.77;;;;;;;;;;4988328;28;20299;-81
2023/04/20 03:55:38;;;;;;;3.67;2.20;;;;;;;;;;4979338;28;20208;-81
2023/04/20 03:58:06;;;;;;;6.00;2.53;;;;;;;;;;4992781;28;20568;-81
2023/04/20 04:00:31;;;;;;;5.03;2.30;;;;;;;;;;4979895;28;20291;-81
2023/04/20 04:02:56;;;;;;;2.80;1.87;;;;;;;;;;4996755;28;20217;-81
2023/04/20 04:05:22;;;;;;;3.27;1.83;;;;;;;;;;4981177;28;20187;-82
2023/04/20 04:07:47;;;;;;;5.33;2.60;;;;;;;;;;4990309;28;20262;-81
2023/04/20 04:10:12;;;;;;;4.40;1.97;;;;;;;;;;4975366;28;20239;-82
2023/04/20 04:12:37;;;;;;;3.00;1.73;;;;;;;;;;4996355;28;20219;-80
2023/04/20 04:15:03;;;;;;;5.43;2.10;;;;;;;;;;4968889;28;20204;-81
2023/04/20 04:17:28;;;;;;;3.37;1.73;;;;;;;;;;4962914;28;20184;-82
2023/04/20 04:19:53;;;;;;;5.10;2.13;;;;;;;;;;4968360;28;20230;-81
2023/04/20 04:22:18;;;;;;;3.13;1.70;;;;;;;;;;4989982;28;20203;-81
2023/04/20 04:24:43;;;;;;;7.70;1.83;;;;;;;;;;4980887;28;20190;-81
2023/04/20 04:27:10;;;;;;;6.80;2.27;;;;;;;;;;4993518;28;20271;-81
2023/04/20 04:29:37;;;;;;;4.10;2.30;;;;;;;;;;4980070;28;20184;-83
2023/04/20 04:32:03;;;;;;;4.90;2.00;;;;;;;;;;4989617;28;20195;-81
2023/04/20 04:34:28;;;;;;;4.53;2.30;;;;;;;;;;4994354;28;20229;-81
2023/04/20 04:36:54;;;;;;;5.33;1.97;;;;;;;;;;4977963;28;20175;-82
2023/04/20 04:39:19;;;;;;;3.47;1.90;;;;;;;;;;4992443;28;20187;-81
2023/04/20 04:41:44;;;;;;;4.90;1.73;;;;;;;;;;4977095;28;20207;-81
2023/04/20 04:44:10;;;;;;;5.70;3.20;;;;;;;;;;4988589;28;20400;-79
2023/04/20 04:46:36;;;;;;;2.83;1.77;;;;;;;;;;4980730;28;20411;-82
2023/04/20 04:49:01;;;;;;;3.67;2.20;;;;;;;;;;4990406;28;20708;-81
2023/04/20 04:51:27;;;;;;;1.97;1.63;;;;;;;;;;4996813;28;20191;-80
2023/04/20 04:53:52;;;;;;;3.13;1.63;;;;;;;;;;4984048;28;20199;-81
2023/04/20 04:56:17;;;;;;;3.77;2.47;;;;;;;;;;4985278;28;20208;-81
2023/04/20 04:58:44;;;;;;;4.17;2.13;;;;;;;;;;4980434;28;20203;-82
2023/04/20 05:01:09;;;;;;;5.07;1.87;;;;;;;;;;4974978;28;20176;-80
2023/04/20 05:03:34;;;;;;;2.83;1.70;;;;;;;;;;4986781;28;20321;-80
2023/04/20 05:06:00;;;;;;;2.90;2.00;;;;;;;;;;4986529;28;20654;-81
2023/04/20 05:08:25;;;;;;;2.97;2.00;;;;;;;;;;4992108;28;20171;-82
2023/04/20 05:10:50;;;;;;;6.50;2.00;;;;;;;;;;4991263;28;20184;-81
2023/04/20 05:13:15;;;;;;;3.23;1.70;;;;;;;;;;4997151;28;20649;-82
2023/04/20 05:15:40;;;;;;;4.17;2.00;;;;;;;;;;4977752;28;20214;-80
2023/04/20 05:18:06;;;;;;;2.90;1.70;;;;;;;;;;4977889;28;20184;-81
2023/04/20 05:20:31;;;;;;;2.87;1.63;;;;;;;;;;4974241;28;20176;-81
2023/04/20 05:22:56;;;;;;;2.53;1.80;;;;;;;;;;4968734;28;20251;-80
2023/04/20 05:25:21;;;;;;;3.10;1.73;;;;;;;;;;4986475;28;20207;-79
2023/04/20 05:27:47;;;;;;;2.70;1.97;;;;;;;;;;4964285;28;20274;-80
2023/04/20 05:30:12;;;;;;;2.60;1.80;;;;;;;;;;4967341;28;20223;-80
2023/04/20 05:32:37;;;;;;;4.27;1.90;;;;;;;;;;4993317;28;20582;-79
2023/04/20 05:35:03;;;;;;;3.23;1.90;;;;;;;;;;4995166;28;20695;-81
2023/04/20 05:37:28;;;;;;;5.80;2.20;;;;;;;;;;4978638;28;20180;-81
2023/04/20 05:39:53;;;;;;;3.93;2.13;;;;;;;;;;4993615;28;20630;-80
2023/04/20 05:42:18;;;;;;;5.60;2.07;;;;;;;;;;4986940;28;20637;-79
2023/04/20 05:44:43;;;;;;;3.73;1.80;;;;;;;;;;4978880;28;20214;-79
2023/04/20 05:47:09;;;;;;;3.70;2.13;;;;;;;;;;4978257;28;20194;-79
2023/04/20 05:49:34;;;;;;;8.27;2.50;;;;;;;;;;4996184;28;20226;-79
2023/04/20 05:52:02;;;;;;;5.27;2.33;;;;;;;;;;4994845;28;20204;-80
2023/04/20 05:54:28;;;;;;;3.67;2.17;;;;;;;;;;4973788;28;20175;-80
2023/04/20 05:56:53;;;;;;;7.80;2.67;;;;;;;;;;4978151;28;20176;-80
2023/04/20 05:59:19;;;;;;;2.97;1.60;;;;;;;;;;4978282;28;20662;-80
2023/04/20 06:01:44;;;;;;;4.33;2.17;;;;;;;;;;4988098;28;20200;-80
2023/04/20 06:04:09;;;;;;;3.40;2.10;;;;;;;;;;4989108;28;20186;-80
2023/04/20 06:06:34;;;;;;;8.47;2.30;;;;;;;;;;4976573;28;20176;-80
2023/04/20 06:09:00;;;;;;;4.87;2.50;;;;;;;;;;4992693;28;20179;-80
2023/04/20 06:11:25;;;;;;;2.87;2.00;;;;;;;;;;4991874;28;20187;-79
2023/04/20 06:13:50;;;;;;;6.23;2.03;;;;;;;;;;4972178;28;20744;-80
2023/04/20 06:16:16;;;;;;;5.73;1.83;;;;;;;;;;4972408;28;20208;-80
2023/04/20 06:18:41;;;;;;;7.13;2.43;;;;;;;;;;4988663;28;20215;-80
2023/04/20 06:21:08;;;;;;;2.30;1.63;;;;;;;;;;4971832;28;20212;-80
2023/04/20 06:23:33;;;;;;;4.70;2.10;;;;;;;;;;4991841;28;20689;-81
2023/04/20 06:25:59;;;;;;;5.80;2.53;;;;;;;;;;4984911;28;20182;-80
2023/04/20 06:28:24;;;;;;;2.83;1.70;;;;;;;;;;4982910;28;20184;-79
2023/04/20 06:30:49;;;;;;;2.10;1.60;;;;;;;;;;4966775;28;21167;-81
2023/04/20 06:33:16;;;;;;;2.40;1.97;;;;;;;;;;4985752;28;20239;-79
2023/04/20 06:35:41;;;;;;;3.40;1.70;;;;;;;;;;4974421;28;20235;-80
2023/04/20 06:38:06;;;;;;;3.03;1.77;;;;;;;;;;4976051;28;20179;-80
2023/04/20 06:40:31;;;;;;;3.90;2.10;;;;;;;;;;4988749;28;20178;-80
2023/04/20 06:42:57;;;;;;;5.20;1.97;;;;;;;;;;4965686;28;20196;-81
2023/04/20 06:45:22;;;;;;;5.40;1.87;;;;;;;;;;4971826;28;20187;-82
2023/04/20 06:47:47;;;;;;;4.00;1.93;;;;;;;;;;4989885;28;20179;-81
2023/04/20 06:50:12;;;;;;;8.00;1.60;;;;;;;;;;4975766;28;20274;-79
2023/04/20 06:52:39;;;;;;;2.80;2.00;;;;;;;;;;4989195;28;20199;-80
2023/04/20 06:55:04;;;;;;;3.73;2.40;;;;;;;;;;4971487;28;20201;-81
2023/04/20 06:57:29;;;;;;;2.60;1.77;;;;;;;;;;4974725;28;20183;-80
2023/04/20 06:59:55;;;;;;;3.00;1.97;;;;;;;;;;4982724;28;20200;-81
2023/04/20 07:02:20;;;;;;;3.80;2.30;;;;;;;;;;4975298;28;20276;-80
2023/04/20 07:04:45;;;;;;;4.87;2.43;;;;;;;;;;4974376;28;20219;-81
2023/04/20 07:07:10;;;;;;;2.43;1.90;;;;;;;;;;4992069;28;20191;-81
2023/04/20 07:09:35;;;;;;;5.87;2.77;;;;;;;;;;4969680;28;20177;-80
2023/04/20 07:12:01;;;;;;;5.53;2.53;;;;;;;;;;4974688;28;20768;-79
2023/04/20 07:14:26;;;;;;;3.40;2.13;;;;;;;;;;4987933;28;20194;-80
2023/04/20 07:16:52;;;;;;;4.23;2.40;;;;;;;;;;4993620;28;20211;-80
2023/04/20 07:19:17;;;;;;;5.40;2.67;;;;;;;;;;4992439;28;20184;-80
2023/04/20 07:21:42;;;;;;;4.83;2.60;;;;;;;;;;4981714;28;20183;-81
2023/04/20 07:24:07;;;;;;;4.93;2.57;;;;;;;;;;4994431;28;20187;-80
2023/04/20 07:26:33;;;;;;;4.00;2.43;;;;;;;;;;4978479;28;20187;-80
2023/04/20 07:28:58;;;;;;;4.63;2.43;;;;;;;;;;5011721;28;20191;-82
2023/04/20 07:31:23;;;;;;;4.87;2.67;;;;;;;;;;5016005;28;20239;-82
2023/04/20 07:33:48;;;;;;;3.83;2.60;;;;;;;;;;4980999;28;20199;-80
2023/04/20 07:36:14;;;;;;;4.10;2.63;;;;;;;;;;5009909;28;20203;-81
2023/04/20 07:38:39;;;;;;;3.00;2.67;;;;;;;;;;4986899;28;20175;-82
2023/04/20 07:41:07;;;;;;;4.20;2.90;;;;;;;;;;4989514;28;20171;-80
2023/04/20 07:43:33;;;;;;;4.93;3.00;;;;;;;;;;5008659;28;20210;-80
2023/04/20 07:45:58;;;;;;;4.80;2.93;;;;;;;;;;4993950;28;20179;-81
2023/04/20 07:48:23;;;;;;;4.40;2.50;;;;;;;;;;4992500;28;20180;-81
2023/04/20 07:50:48;;;;;;;4.77;2.73;;;;;;;;;;5005824;28;20241;-82
2023/04/20 07:53:13;;;;;;;4.70;2.70;;;;;;;;;;4977350;28;20215;-81
2023/04/20 07:55:38;;;;;;;3.43;2.40;;;;;;;;;;4989700;28;20246;-80
2023/04/20 07:58:04;;;;;;;4.53;2.37;;;;;;;;;;4993478;28;20199;-80
2023/04/20 08:00:29;;;;;;;4.80;2.90;;;;;;;;;;4996206;28;20403;-81
2023/04/20 08:02:54;;;;;;;5.77;3.30;;;;;;;;;;4978849;28;20200;-83
2023/04/20 08:05:20;;;;;;;3.67;2.60;;;;;;;;;;4994713;28;20190;-81
2023/04/20 08:07:45;;;;;;;8.73;2.83;;;;;;;;;;4982508;28;20247;-84
2023/04/20 08:10:10;;;;;;;3.50;2.50;;;;;;;;;;4995756;28;20190;-82
2023/04/20 08:12:35;;;;;;;4.60;3.13;;;;;;;;;;4974883;28;20586;-83
2023/04/20 08:15:04;;;;;;;4.57;2.60;;;;;;;;;;4993599;28;20283;-81
2023/04/20 08:17:29;;;;;;;3.50;2.87;;;;;;;;;;4991638;28;20180;-81
2023/04/20 08:19:54;;;;;;;3.73;2.67;;;;;;;;;;4993518;28;20237;-82
2023/04/20 08:22:20;;;;;;;7.90;3.17;;;;;;;;;;4978096;28;20200;-80
2023/04/20 08:24:46;;;;;;;7.87;2.87;;;;;;;;;;4970540;28;20227;-81
2023/04/20 08:27:11;;;;;;;4.03;2.97;;;;;;;;;;4995264;28;20187;-82
2023/04/20 08:29:37;;;;;;;4.17;3.03;;;;;;;;;;4996822;28;20254;-79
2023/04/20 08:32:02;;;;;;;3.90;2.70;;;;;;;;;;4977962;28;20195;-83
2023/04/20 08:34:27;;;;;;;6.60;2.97;;;;;;;;;;4980818;28;20271;-81
2023/04/20 08:36:53;;;;;;;7.53;2.93;;;;;;;;;;4991300;28;20203;-81
2023/04/20 08:39:19;;;;;;;3.43;2.70;;;;;;;;;;4990845;28;20186;-82
2023/04/20 08:41:45;;;;;;;8.73;3.73;;;;;;;;;;4997352;28;20199;-84
2023/04/20 08:44:10;;;;;;;7.50;2.90;;;;;;;;;;4995690;28;20177;-82
2023/04/20 08:46:36;;;;;;;5.53;3.63;;;;;;;;;;4985483;28;20188;-82
2023/04/20 08:49:02;;;;;;;4.23;2.80;;;;;;;;;;4991156;28;20160;-82
2023/04/20 08:51:28;;;;;;;3.93;3.10;;;;;;;;;;4974857;28;20669;-81
2023/04/20 08:53:54;;;;;;;4.23;2.90;;;;;;;;;;4972223;28;20226;-82
2023/04/20 08:56:20;;;;;;;10.37;3.77;;;;;;;;;;4993326;28;20204;-83
2023/04/20 08:58:45;;;;;;;4.90;2.97;;;;;;;;;;4992285;28;20255;-80
2023/04/20 09:01:11;;;;;;;7.57;3.33;;;;;;;;;;4990197;28;20180;-80
2023/04/20 09:03:37;;;;;;;3.77;2.80;;;;;;;;;;4991895;28;20617;-81
2023/04/20 09:06:12;;;;;;;4.60;3.23;;;;;;;;;;5000299;28;20234;-80
2023/04/20 09:08:39;;;;;;;5.63;2.80;;;;;;;;;;4995690;28;20199;-81
2023/04/20 09:11:04;;;;;;;4.87;3.07;;;;;;;;;;4976940;28;20191;-81
2023/04/20 09:13:30;;;;;;;3.73;2.67;;;;;;;;;;4996098;28;20646;-82
2023/04/20 09:15:55;;;;;;;3.73;3.10;;;;;;;;;;4973579;28;20184;-80
2023/04/20 09:18:22;;;;;;;6.23;3.20;;;;;;;;;;4996047;28;20175;-80
2023/04/20 09:20:47;;;;;;;5.90;3.30;;;;;;;;;;4978082;28;20191;-80
2023/04/20 09:23:13;;;;;;;4.40;3.33;;;;;;;;;;4974231;28;20596;-81
2023/04/20 09:25:41;;;;;;;3.97;3.07;;;;;;;;;;4970575;28;20276;-81
2023/04/20 09:28:07;;;;;;;5.10;3.13;;;;;;;;;;4992761;28;20669;-80
2023/04/20 09:30:37;;;;;;;6.27;3.40;;;;;;;;;;4972244;28;20176;-82
2023/04/20 09:33:02;;;;;;;5.07;3.50;;;;;;;;;;4988066;28;20199;-82
2023/04/20 09:35:28;;;;;;;6.60;3.37;;;;;;;;;;4975011;28;20810;-81
2023/04/20 09:37:53;;;;;;;6.57;3.20;;;;;;;;;;4994659;28;20176;-82
2023/04/20 09:40:18;;;;;;;3.27;2.80;;;;;;;;;;4973513;28;20259;-82
2023/04/20 09:42:44;;;;;;;3.33;2.53;;;;;;;;;;4988663;28;20188;-82
2023/04/20 09:45:12;;;;;;;3.10;2.40;;;;;;;;;;4989500;28;20179;-79
2023/04/20 09:47:40;;;;;;;3.90;2.70;;;;;;;;;;4974918;28;20176;-81
2023/04/20 09:50:06;;;;;;;8.40;3.63;;;;;;;;;;4992101;28;20250;-81
2023/04/20 09:52:32;;;;;;;3.57;2.70;;;;;;;;;;4976831;28;20589;-81
2023/04/20 09:54:57;;;;;;;6.18;2.88;;;;;;;;;;4975964;28;20204;-79
2023/04/20 09:57:24;;;;;;;6.80;3.75;;;;;;;;;;4985257;28;20176;-80
2023/04/20 09:59:50;;;;;;;4.73;3.30;;;;;;;;;;4992724;28;20202;-81
2023/04/20 10:02:15;;;;;;;5.97;3.42;;;;;;;;;;4987622;28;20238;-81
2023/04/20 10:04:56;;;;;;;7.17;4.13;;;;;;;;;;4991790;28;20699;-80
2023/04/20 10:07:26;;;;;;;3.75;3.03;;;;;;;;;;4986788;28;20175;-81
2023/04/20 10:10:05;;;;;;;6.25;3.50;;;;;;;;;;4985857;28;20259;-80
2023/04/20 10:12:30;;;;;;;4.43;3.20;;;;;;;;;;4974245;28;20270;-80
2023/04/20 10:15:00;;;;;;;4.82;3.10;;;;;;;;;;4984042;28;20294;-81
2023/04/20 10:17:32;;;;;;;5.40;4.20;;;;;;;;;;4988190;28;20168;-81
2023/04/20 10:19:58;;;;;;;4.50;3.40;;;;;;;;;;4969267;28;20180;-81
2023/04/20 10:22:31;;;;;;;6.28;3.80;;;;;;;;;;4985005;28;20182;-81
2023/04/20 10:24:56;;;;;;;4.77;3.60;;;;;;;;;;4991290;28;20168;-81
2023/04/20 10:27:21;;;;;;;5.67;3.60;;;;;;;;;;4993549;28;20182;-80
2023/04/20 10:29:47;;;;;;;3.58;2.75;;;;;;;;;;4976191;28;20183;-81
2023/04/20 10:32:22;;;;;;;6.88;4.05;;;;;;;;;;4991780;28;20631;-80
2023/04/20 10:34:47;;;;;;;5.70;3.90;;;;;;;;;;4990386;28;20203;-80
2023/04/20 10:37:12;;;;;;;5.83;4.00;;;;;;;;;;4970437;28;20203;-80
2023/04/20 10:39:44;;;;;;;5.47;3.93;;;;;;;;;;4975854;28;20183;-81
2023/04/20 10:42:10;;;;;;;4.97;3.40;;;;;;;;;;4988910;28;20253;-80
2023/04/20 10:44:45;;;;;;;6.20;4.30;;;;;;;;;;4988775;28;20172;-81
2023/04/20 10:47:11;;;;;;;8.03;4.53;;;;;;;;;;4972270;28;20627;-81
2023/04/20 10:49:37;;;;;;;11.17;4.70;;;;;;;;;;4978601;28;20175;-80
2023/04/20 10:52:02;;;;;;;12.00;5.60;;;;;;;;;;4978676;28;20211;-80
2023/04/20 10:54:35;;;;;;;6.77;4.07;;;;;;;;;;4990138;28;20182;-81
2023/04/20 10:57:01;;;;;;;8.50;5.07;;;;;;;;;;4989706;28;20263;-80
2023/04/20 10:59:27;;;;;;;4.03;3.20;;;;;;;;;;4975294;28;20197;-80
2023/04/20 11:01:54;;;;;;;10.23;5.77;;;;;;;;;;4983963;28;20195;-80
2023/04/20 11:04:28;;;;;;;12.83;7.30;;;;;;;;;;4990181;28;20253;-82
2023/04/20 11:06:54;;;;;;;6.93;4.13;;;;;;;;;;4973729;28;20234;-82
2023/04/20 11:09:21;;;;;;;12.57;7.43;;;;;;;;;;4977621;28;20191;-81
2023/04/20 11:11:57;;;;;;;10.33;4.50;;;;;;;;;;4993121;28;20178;-81
2023/04/20 11:14:22;;;;;;;5.50;4.28;;;;;;;;;;4970461;28;20206;-81
2023/04/20 11:16:51;;;;;;;4.43;3.78;;;;;;;;;;4991971;28;20196;-81
2023/04/20 11:19:24;;;;;;;4.15;3.67;;;;;;;;;;4992701;28;20717;-82
2023/04/20 11:21:49;;;;;;;3.88;3.10;;;;;;;;;;4965748;28;20267;-81
2023/04/20 11:24:21;;;;;;;5.05;3.58;;;;;;;;;;4972475;28;20203;-82
2023/04/20 11:26:49;;;;;;;5.78;4.15;;;;;;;;;;4993607;28;20180;-81
2023/04/20 11:29:34;;;;;;;5.80;3.60;;;;;;;;;;4988705;28;20200;-81
2023/04/20 11:32:01;;;;;;;4.82;3.40;;;;;;;;;;4985652;28;20212;-82
2023/04/20 11:34:26;;;;;;;5.32;3.40;;;;;;;;;;5019956;28;20188;-82
2023/04/20 11:36:53;;;;;;;5.75;3.75;;;;;;;;;;4997086;28;20218;-81
2023/04/20 11:39:25;;;;;;;6.03;3.80;;;;;;;;;;4979171;28;20184;-80
2023/04/20 11:41:51;;;;;;;7.22;4.30;;;;;;;;;;4998697;28;20171;-81
2023/04/20 11:44:19;;;;;;;5.60;3.83;;;;;;;;;;4990306;28;20253;-80
2023/04/20 11:46:44;;;;;;;6.70;3.28;;;;;;;;;;4975855;28;20176;-79
2023/04/20 11:49:10;;;;;;;6.18;3.45;;;;;;;;;;4988122;28;20188;-81
2023/04/20 11:51:35;;;;;;;5.85;3.78;;;;;;;;;;4977234;28;20241;-80
2023/04/20 11:54:00;;;;;;;6.00;3.70;;;;;;;;;;4994127;28;20186;-80
2023/04/20 11:56:25;;;;;;;6.15;2.95;;;;;;;;;;4996373;28;20219;-81
2023/04/20 11:58:50;;;;;;;5.55;3.22;;;;;;;;;;4998027;28;20179;-82
2023/04/20 12:01:16;;;;;;;5.32;3.28;;;;;;;;;;4992455;28;20175;-81
2023/04/20 12:03:41;;;;;;;4.78;3.38;;;;;;;;;;4986357;28;20206;-80
2023/04/20 12:06:06;;;;;;;6.13;3.90;;;;;;;;;;4992060;28;20179;-80
2023/04/20 12:08:31;;;;;;;5.68;3.35;;;;;;;;;;4989644;28;20180;-79
2023/04/20 12:10:57;;;;;;;4.30;3.05;;;;;;;;;;5002186;28;20179;-81
2023/04/20 12:13:22;;;;;;;3.67;3.22;;;;;;;;;;5008209;28;20222;-79
2023/04/20 12:15:47;;;;;;;3.47;2.67;;;;;;;;;;4994452;28;20207;-80
2023/04/20 12:18:12;;;;;;;3.47;3.08;;;;;;;;;;4993589;28;20175;-80
2023/04/20 12:20:38;;;;;;;3.72;3.00;;;;;;;;;;5007604;28;20188;-81
2023/04/20 12:23:03;;;;;;;4.00;2.80;;;;;;;;;;4990301;28;20682;-80
2023/04/20 12:25:28;;;;;;;4.57;3.50;;;;;;;;;;4986241;28;20204;-81
2023/04/20 12:27:53;;;;;;;4.50;2.95;;;;;;;;;;4971294;28;20752;-81
2023/04/20 12:30:18;;;;;;;4.30;2.55;;;;;;;;;;4990661;28;20263;-80
2023/04/20 12:32:44;;;;;;;5.18;2.95;;;;;;;;;;4991809;28;20203;-80
2023/04/20 12:35:09;;;;;;;4.10;3.08;;;;;;;;;;4978845;28;20200;-81
2023/04/20 12:37:34;;;;;;;3.50;2.70;;;;;;;;;;4997370;28;20186;-81
2023/04/20 12:40:00;;;;;;;2.77;2.50;;;;;;;;;;4993659;28;20879;-80
2023/04/20 12:42:25;;;;;;;3.00;2.67;;;;;;;;;;4994754;28;20199;-81
2023/04/20 12:44:53;;;;;;;3.55;2.58;;;;;;;;;;4993325;28;20176;-82
2023/04/20 12:47:18;;;;;;;6.47;2.80;;;;;;;;;;4995260;28;20168;-81
2023/04/20 12:49:44;;;;;;;7.17;3.50;;;;;;;;;;4996062;28;20174;-80
2023/04/20 12:52:09;;;;;;;5.05;3.05;;;;;;;;;;4976718;28;20186;-81
2023/04/20 12:54:34;;;;;;;3.88;3.05;;;;;;;;;;4993967;28;20184;-81
2023/04/20 12:57:01;;;;;;;5.47;2.75;;;;;;;;;;4984390;28;20204;-81
2023/04/20 12:59:26;;;;;;;3.40;2.55;;;;;;;;;;4992094;28;20254;-82
2023/04/20 13:01:51;;;;;;;3.88;3.03;;;;;;;;;;4993138;28;20234;-82
2023/04/20 13:04:16;;;;;;;4.57;3.35;;;;;;;;;;4991496;28;20701;-81
2023/04/20 13:06:42;;;;;;;3.15;2.80;;;;;;;;;;4991985;28;20460;-81
2023/04/20 13:09:07;;;;;;;4.13;2.85;;;;;;;;;;4985238;28;20209;-82
2023/04/20 13:11:32;;;;;;;3.03;2.72;;;;;;;;;;4997936;28;20200;-80
2023/04/20 13:13:57;;;;;;;3.47;2.80;;;;;;;;;;4994120;28;20672;-82
2023/04/20 13:16:23;;;;;;;5.75;3.50;;;;;;;;;;4979997;28;20231;-81
2023/04/20 13:18:48;;;;;;;4.80;3.53;;;;;;;;;;4996509;28;20651;-81
2023/04/20 13:21:13;;;;;;;3.47;3.17;;;;;;;;;;4978750;28;20180;-81
2023/04/20 13:23:38;;;;;;;5.50;3.22;;;;;;;;;;4993731;28;20259;-81
2023/04/20 13:26:04;;;;;;;4.50;3.30;;;;;;;;;;4978515;28;20180;-82
2023/04/20 13:28:30;;;;;;;3.80;2.88;;;;;;;;;;4978474;28;20179;-81
2023/04/20 13:30:56;;;;;;;7.63;3.78;;;;;;;;;;4997807;28;20175;-81
2023/04/20 13:33:21;;;;;;;4.28;3.08;;;;;;;;;;5000048;28;20200;-81
2023/04/20 13:35:47;;;;;;;3.90;2.80;;;;;;;;;;4982411;28;20206;-81
2023/04/20 13:38:12;;;;;;;5.25;3.30;;;;;;;;;;4997026;28;20191;-80
2023/04/20 13:40:37;;;;;;;4.60;3.00;;;;;;;;;;4983375;28;20181;-83
2023/04/20 13:43:02;;;;;;;4.50;3.40;;;;;;;;;;5000863;28;20196;-81
2023/04/20 13:45:28;;;;;;;6.10;3.40;;;;;;;;;;5000173;28;20180;-81
2023/04/20 13:47:53;;;;;;;5.05;3.60;;;;;;;;;;4981298;28;20195;-82
2023/04/20 13:50:19;;;;;;;3.67;3.35;;;;;;;;;;4998068;28;20184;-81
2023/04/20 13:52:44;;;;;;;4.22;3.47;;;;;;;;;;4996784;28;20196;-81
2023/04/20 13:55:09;;;;;;;5.03;3.15;;;;;;;;;;4979486;28;20200;-81
2023/04/20 13:57:35;;;;;;;4.00;3.03;;;;;;;;;;4997486;28;20175;-81
2023/04/20 14:00:00;;;;;;;5.47;3.30;;;;;;;;;;4996586;28;20210;-81
2023/04/20 14:02:26;;;;;;;5.20;3.35;;;;;;;;;;4993206;28;20200;-81
2023/04/20 14:04:51;;;;;;;4.68;3.80;;;;;;;;;;4990947;28;20183;-81
2023/04/20 14:07:17;;;;;;;5.78;3.53;;;;;;;;;;4984066;28;20180;-80
2023/04/20 14:09:45;;;;;;;5.57;4.03;;;;;;;;;;4968853;28;20191;-81
2023/04/20 14:12:10;;;;;;;5.22;4.10;;;;;;;;;;4976451;28;20706;-81
2023/04/20 14:14:36;;;;;;;3.15;2.85;;;;;;;;;;4991167;28;20211;-81
2023/04/20 14:17:01;;;;;;;4.78;3.78;;;;;;;;;;4992787;28;20219;-81
2023/04/20 14:19:26;;;;;;;4.78;3.40;;;;;;;;;;4980430;28;20192;-81
2023/04/20 14:21:51;;;;;;;5.65;3.53;;;;;;;;;;4977710;28;20195;-80
2023/04/20 14:24:17;;;;;;;3.30;3.00;;;;;;;;;;4989554;28;20259;-80
2023/04/20 14:26:42;;;;;;;6.78;4.10;;;;;;;;;;4982341;28;20210;-81
2023/04/20 14:29:08;;;;;;;5.07;4.55;;;;;;;;;;4974518;28;20180;-81
2023/04/20 14:31:33;;;;;;;4.72;3.33;;;;;;;;;;4987750;28;20176;-84
2023/04/20 14:33:58;;;;;;;6.25;3.70;;;;;;;;;;4975640;28;20175;-81
2023/04/20 14:36:24;;;;;;;4.28;3.78;;;;;;;;;;4974739;28;20723;-81